sensor_id;sensor_type;location;lat;lon;timestamp;P1;durP1;ratioP1;P2;durP2;ratioP2
4089;SDS011;2059;48.538;12.146;2022-11-15T00:03:45;28.10;;;18.13;;
4089;SDS011;2059;48.538;12.146;2022-11-15T00:08:51;23.40;;;16.97;;
4089;SDS011;2059;48.538;12.146;2022-11-15T00:13:54;22.40;;;16.00;;
4089;SDS011;2059;48.538;12.146;2022-11-15T00:18:58;21.83;;;17.03;;
4089;SDS011;2059;48.538;12.146;2022-11-15T00:24:00;17.37;;;13.90;;
4089;SDS011;2059;48.538;12.146;2022-11-15T00:29:02;20.90;;;15.53;;
4089;SDS011;2059;48.538;12.146;2022-11-15T00:34:05;19.57;;;14.17;;
4089;SDS011;2059;48.538;12.146;2022-11-15T00:39:07;16.40;;;12.60;;
4089;SDS011;2059;48.538;12.146;2022-11-15T00:44:09;16.97;;;13.07;;
4089;SDS011;2059;48.538;12.146;2022-11-15T00:49:12;19.43;;;14.83;;
4089;SDS011;2059;48.538;12.146;2022-11-15T00:54:14;16.23;;;12.73;;
4089;SDS011;2059;48.538;12.146;2022-11-15T00:59:15;17.90;;;13.30;;
4089;SDS011;2059;48.538;12.146;2022-11-15T01:04:19;18.87;;;12.80;;
4089;SDS011;2059;48.538;12.146;2022-11-15T01:09:21;13.33;;;11.33;;
4089;SDS011;2059;48.538;12.146;2022-11-15T01:14:23;17.30;;;13.63;;
4089;SDS011;2059;48.538;12.146;2022-11-15T01:19:26;15.37;;;12.73;;
4089;SDS011;2059;48.538;12.146;2022-11-15T01:24:28;14.73;;;12.40;;
4089;SDS011;2059;48.538;12.146;2022-11-15T01:29:30;15.50;;;13.10;;
4089;SDS011;2059;48.538;12.146;2022-11-15T01:34:33;15.93;;;13.13;;
4089;SDS011;2059;48.538;12.146;2022-11-15T01:39:35;16.73;;;13.67;;
4089;SDS011;2059;48.538;12.146;2022-11-15T01:44:38;14.93;;;12.53;;
4089;SDS011;2059;48.538;12.146;2022-11-15T01:49:45;13.00;;;11.60;;
4089;SDS011;2059;48.538;12.146;2022-11-15T01:54:53;14.23;;;12.23;;
4089;SDS011;2059;48.538;12.146;2022-11-15T01:59:58;11.70;;;10.50;;
4089;SDS011;2059;48.538;12.146;2022-11-15T02:05:04;12.80;;;10.90;;
4089;SDS011;2059;48.538;12.146;2022-11-15T02:10:07;12.13;;;10.70;;
4089;SDS011;2059;48.538;12.146;2022-11-15T02:15:10;12.77;;;10.90;;
4089;SDS011;2059;48.538;12.146;2022-11-15T02:20:26;13.30;;;11.90;;
4089;SDS011;2059;48.538;12.146;2022-11-15T02:25:46;14.30;;;12.30;;
4089;SDS011;2059;48.538;12.146;2022-11-15T02:31:00;18.63;;;11.70;;
4089;SDS011;2059;48.538;12.146;2022-11-15T02:36:08;14.27;;;12.77;;
4089;SDS011;2059;48.538;12.146;2022-11-15T02:41:15;13.60;;;12.20;;
4089;SDS011;2059;48.538;12.146;2022-11-15T02:46:27;13.77;;;12.40;;
4089;SDS011;2059;48.538;12.146;2022-11-15T02:51:52;12.77;;;11.40;;
4089;SDS011;2059;48.538;12.146;2022-11-15T02:56:56;11.87;;;10.77;;
4089;SDS011;2059;48.538;12.146;2022-11-15T03:02:07;13.00;;;9.90;;
4089;SDS011;2059;48.538;12.146;2022-11-15T03:07:23;12.93;;;11.60;;
4089;SDS011;2059;48.538;12.146;2022-11-15T03:12:33;12.23;;;11.00;;
4089;SDS011;2059;48.538;12.146;2022-11-15T03:17:40;14.50;;;11.80;;
4089;SDS011;2059;48.538;12.146;2022-11-15T03:22:46;12.97;;;11.57;;
4089;SDS011;2059;48.538;12.146;2022-11-15T03:27:51;12.30;;;10.73;;
4089;SDS011;2059;48.538;12.146;2022-11-15T03:32:57;12.87;;;11.57;;
4089;SDS011;2059;48.538;12.146;2022-11-15T03:38:04;12.60;;;11.20;;
4089;SDS011;2059;48.538;12.146;2022-11-15T03:43:14;14.23;;;11.93;;
4089;SDS011;2059;48.538;12.146;2022-11-15T03:48:22;13.30;;;11.90;;
4089;SDS011;2059;48.538;12.146;2022-11-15T03:53:29;12.63;;;11.23;;
4089;SDS011;2059;48.538;12.146;2022-11-15T03:58:31;16.53;;;11.83;;
4089;SDS011;2059;48.538;12.146;2022-11-15T04:03:35;17.23;;;13.00;;
4089;SDS011;2059;48.538;12.146;2022-11-15T04:08:37;14.73;;;12.93;;
4089;SDS011;2059;48.538;12.146;2022-11-15T04:13:38;18.40;;;13.20;;
4089;SDS011;2059;48.538;12.146;2022-11-15T04:18:42;15.53;;;13.77;;
4089;SDS011;2059;48.538;12.146;2022-11-15T04:23:43;18.67;;;13.53;;
4089;SDS011;2059;48.538;12.146;2022-11-15T04:29:03;18.63;;;14.27;;
4089;SDS011;2059;48.538;12.146;2022-11-15T04:34:26;15.30;;;13.40;;
4089;SDS011;2059;48.538;12.146;2022-11-15T04:39:28;14.10;;;12.40;;
4089;SDS011;2059;48.538;12.146;2022-11-15T04:44:29;12.00;;;10.80;;
4089;SDS011;2059;48.538;12.146;2022-11-15T04:49:32;12.83;;;11.23;;
4089;SDS011;2059;48.538;12.146;2022-11-15T04:54:34;12.03;;;10.77;;
4089;SDS011;2059;48.538;12.146;2022-11-15T04:59:36;15.17;;;13.43;;
4089;SDS011;2059;48.538;12.146;2022-11-15T05:04:39;13.27;;;11.93;;
4089;SDS011;2059;48.538;12.146;2022-11-15T05:09:41;13.13;;;11.63;;
4089;SDS011;2059;48.538;12.146;2022-11-15T05:14:43;14.73;;;13.13;;
4089;SDS011;2059;48.538;12.146;2022-11-15T05:19:46;16.90;;;13.50;;
4089;SDS011;2059;48.538;12.146;2022-11-15T05:24:48;15.60;;;14.00;;
4089;SDS011;2059;48.538;12.146;2022-11-15T05:29:50;15.90;;;13.17;;
4089;SDS011;2059;48.538;12.146;2022-11-15T05:34:53;17.93;;;12.50;;
4089;SDS011;2059;48.538;12.146;2022-11-15T05:39:55;18.63;;;14.43;;
4089;SDS011;2059;48.538;12.146;2022-11-15T05:44:57;17.03;;;14.20;;
4089;SDS011;2059;48.538;12.146;2022-11-15T05:50:02;15.33;;;12.70;;
4089;SDS011;2059;48.538;12.146;2022-11-15T05:55:04;15.87;;;13.13;;
4089;SDS011;2059;48.538;12.146;2022-11-15T06:00:08;15.10;;;12.47;;
4089;SDS011;2059;48.538;12.146;2022-11-15T06:05:12;15.43;;;12.23;;
4089;SDS011;2059;48.538;12.146;2022-11-15T06:10:14;14.97;;;12.20;;
4089;SDS011;2059;48.538;12.146;2022-11-15T06:15:17;18.80;;;13.13;;
4089;SDS011;2059;48.538;12.146;2022-11-15T06:20:20;17.83;;;12.60;;
4089;SDS011;2059;48.538;12.146;2022-11-15T06:25:22;17.47;;;11.90;;
4089;SDS011;2059;48.538;12.146;2022-11-15T06:30:24;17.10;;;12.73;;
4089;SDS011;2059;48.538;12.146;2022-11-15T06:35:28;23.27;;;12.97;;
4089;SDS011;2059;48.538;12.146;2022-11-15T06:40:33;22.83;;;13.53;;
4089;SDS011;2059;48.538;12.146;2022-11-15T06:45:36;19.20;;;12.63;;
4089;SDS011;2059;48.538;12.146;2022-11-15T06:50:39;21.13;;;14.20;;
4089;SDS011;2059;48.538;12.146;2022-11-15T06:55:41;22.70;;;13.93;;
4089;SDS011;2059;48.538;12.146;2022-11-15T07:00:43;19.43;;;14.97;;
4089;SDS011;2059;48.538;12.146;2022-11-15T07:05:51;23.73;;;14.50;;
4089;SDS011;2059;48.538;12.146;2022-11-15T07:10:54;22.77;;;14.50;;
4089;SDS011;2059;48.538;12.146;2022-11-15T07:16:01;20.53;;;14.03;;
4089;SDS011;2059;48.538;12.146;2022-11-15T07:21:05;24.00;;;15.03;;
4089;SDS011;2059;48.538;12.146;2022-11-15T07:26:08;27.90;;;18.73;;
4089;SDS011;2059;48.538;12.146;2022-11-15T07:31:10;41.23;;;24.30;;
4089;SDS011;2059;48.538;12.146;2022-11-15T07:36:13;23.07;;;16.90;;
4089;SDS011;2059;48.538;12.146;2022-11-15T07:41:15;24.20;;;14.63;;
4089;SDS011;2059;48.538;12.146;2022-11-15T07:46:17;17.43;;;14.40;;
4089;SDS011;2059;48.538;12.146;2022-11-15T07:51:20;18.50;;;14.97;;
4089;SDS011;2059;48.538;12.146;2022-11-15T07:56:22;22.43;;;15.77;;
4089;SDS011;2059;48.538;12.146;2022-11-15T08:01:24;18.63;;;15.57;;
4089;SDS011;2059;48.538;12.146;2022-11-15T08:06:27;26.90;;;17.87;;
4089;SDS011;2059;48.538;12.146;2022-11-15T08:11:29;28.43;;;17.80;;
4089;SDS011;2059;48.538;12.146;2022-11-15T08:16:31;32.40;;;19.40;;
4089;SDS011;2059;48.538;12.146;2022-11-15T08:21:34;28.00;;;17.80;;
4089;SDS011;2059;48.538;12.146;2022-11-15T08:26:37;26.80;;;17.23;;
4089;SDS011;2059;48.538;12.146;2022-11-15T08:31:39;29.90;;;19.80;;
4089;SDS011;2059;48.538;12.146;2022-11-15T08:36:42;33.97;;;22.90;;
4089;SDS011;2059;48.538;12.146;2022-11-15T08:41:44;22.77;;;17.27;;
4089;SDS011;2059;48.538;12.146;2022-11-15T08:46:46;22.27;;;16.40;;
4089;SDS011;2059;48.538;12.146;2022-11-15T08:51:49;20.27;;;17.20;;
4089;SDS011;2059;48.538;12.146;2022-11-15T08:56:51;20.13;;;16.80;;
4089;SDS011;2059;48.538;12.146;2022-11-15T09:01:53;20.07;;;16.97;;
4089;SDS011;2059;48.538;12.146;2022-11-15T09:06:56;36.23;;;24.77;;
4089;SDS011;2059;48.538;12.146;2022-11-15T09:11:58;21.70;;;17.47;;
4089;SDS011;2059;48.538;12.146;2022-11-15T09:17:00;28.03;;;20.00;;
4089;SDS011;2059;48.538;12.146;2022-11-15T09:22:06;27.53;;;20.97;;
4089;SDS011;2059;48.538;12.146;2022-11-15T09:27:08;24.47;;;19.00;;
4089;SDS011;2059;48.538;12.146;2022-11-15T09:32:10;25.83;;;19.00;;
4089;SDS011;2059;48.538;12.146;2022-11-15T09:37:13;17.77;;;14.80;;
4089;SDS011;2059;48.538;12.146;2022-11-15T09:42:22;18.47;;;15.03;;
4089;SDS011;2059;48.538;12.146;2022-11-15T09:47:45;22.27;;;18.33;;
4089;SDS011;2059;48.538;12.146;2022-11-15T09:53:02;21.23;;;19.03;;
4089;SDS011;2059;48.538;12.146;2022-11-15T09:58:07;17.97;;;16.07;;
4089;SDS011;2059;48.538;12.146;2022-11-15T10:03:27;16.40;;;12.60;;
4089;SDS011;2059;48.538;12.146;2022-11-15T10:08:37;16.37;;;14.67;;
4089;SDS011;2059;48.538;12.146;2022-11-15T10:13:48;15.17;;;12.53;;
4089;SDS011;2059;48.538;12.146;2022-11-15T10:18:53;14.17;;;12.67;;
4089;SDS011;2059;48.538;12.146;2022-11-15T10:24:06;13.90;;;12.40;;
4089;SDS011;2059;48.538;12.146;2022-11-15T10:29:17;16.80;;;15.03;;
4089;SDS011;2059;48.538;12.146;2022-11-15T10:34:20;20.70;;;16.90;;
4089;SDS011;2059;48.538;12.146;2022-11-15T10:39:25;20.87;;;17.77;;
4089;SDS011;2059;48.538;12.146;2022-11-15T10:44:28;17.60;;;15.70;;
4089;SDS011;2059;48.538;12.146;2022-11-15T10:49:31;21.07;;;16.30;;
4089;SDS011;2059;48.538;12.146;2022-11-15T10:54:36;25.80;;;19.77;;
4089;SDS011;2059;48.538;12.146;2022-11-15T10:59:42;25.67;;;22.73;;
4089;SDS011;2059;48.538;12.146;2022-11-15T11:04:49;22.07;;;19.77;;
4089;SDS011;2059;48.538;12.146;2022-11-15T11:09:58;21.83;;;17.50;;
4089;SDS011;2059;48.538;12.146;2022-11-15T11:15:05;18.30;;;16.40;;
4089;SDS011;2059;48.538;12.146;2022-11-15T11:20:16;16.70;;;14.10;;
4089;SDS011;2059;48.538;12.146;2022-11-15T11:25:25;14.73;;;13.20;;
4089;SDS011;2059;48.538;12.146;2022-11-15T11:30:37;15.10;;;13.20;;
4089;SDS011;2059;48.538;12.146;2022-11-15T11:35:50;17.13;;;15.53;;
4089;SDS011;2059;48.538;12.146;2022-11-15T11:41:03;15.03;;;13.13;;
4089;SDS011;2059;48.538;12.146;2022-11-15T11:46:13;13.40;;;12.10;;
4089;SDS011;2059;48.538;12.146;2022-11-15T11:51:34;13.93;;;12.13;;
4089;SDS011;2059;48.538;12.146;2022-11-15T11:56:43;17.83;;;16.23;;
4089;SDS011;2059;48.538;12.146;2022-11-15T12:01:46;17.00;;;15.40;;
4089;SDS011;2059;48.538;12.146;2022-11-15T12:06:49;15.40;;;13.27;;
4089;SDS011;2059;48.538;12.146;2022-11-15T12:11:57;13.93;;;12.63;;
4089;SDS011;2059;48.538;12.146;2022-11-15T12:17:07;17.63;;;15.00;;
4089;SDS011;2059;48.538;12.146;2022-11-15T12:22:12;13.70;;;12.50;;
4089;SDS011;2059;48.538;12.146;2022-11-15T12:27:24;13.30;;;11.93;;
4089;SDS011;2059;48.538;12.146;2022-11-15T12:32:33;14.47;;;13.23;;
4089;SDS011;2059;48.538;12.146;2022-11-15T12:48:46;12.50;;;11.50;;
4089;SDS011;2059;48.538;12.146;2022-11-15T12:53:53;14.30;;;13.10;;
4089;SDS011;2059;48.538;12.146;2022-11-15T12:58:57;13.97;;;12.70;;
4089;SDS011;2059;48.538;12.146;2022-11-15T13:04:12;13.10;;;12.10;;
4089;SDS011;2059;48.538;12.146;2022-11-15T13:14:53;12.53;;;11.53;;
4089;SDS011;2059;48.538;12.146;2022-11-15T13:20:11;12.33;;;11.43;;
4089;SDS011;2059;48.538;12.146;2022-11-15T13:25:46;12.50;;;11.57;;
4089;SDS011;2059;48.538;12.146;2022-11-15T13:31:26;12.80;;;11.80;;
4089;SDS011;2059;48.538;12.146;2022-11-15T13:36:31;12.30;;;11.33;;
4089;SDS011;2059;48.538;12.146;2022-11-15T13:41:35;12.60;;;11.60;;
4089;SDS011;2059;48.538;12.146;2022-11-15T13:46:46;12.63;;;11.63;;
4089;SDS011;2059;48.538;12.146;2022-11-15T13:51:49;12.07;;;11.07;;
4089;SDS011;2059;48.538;12.146;2022-11-15T13:56:54;12.33;;;11.20;;
4089;SDS011;2059;48.538;12.146;2022-11-15T14:02:02;12.70;;;11.60;;
4089;SDS011;2059;48.538;12.146;2022-11-15T14:07:23;12.70;;;11.80;;
4089;SDS011;2059;48.538;12.146;2022-11-15T14:12:28;12.13;;;11.20;;
4089;SDS011;2059;48.538;12.146;2022-11-15T14:17:37;13.97;;;12.80;;
4089;SDS011;2059;48.538;12.146;2022-11-15T14:22:40;12.67;;;11.57;;
4089;SDS011;2059;48.538;12.146;2022-11-15T14:33:21;13.10;;;12.00;;
4089;SDS011;2059;48.538;12.146;2022-11-15T14:38:25;12.90;;;11.90;;
4089;SDS011;2059;48.538;12.146;2022-11-15T14:43:27;13.00;;;12.00;;
4089;SDS011;2059;48.538;12.146;2022-11-15T14:48:30;13.60;;;12.60;;
4089;SDS011;2059;48.538;12.146;2022-11-15T14:53:32;13.03;;;11.93;;
4089;SDS011;2059;48.538;12.146;2022-11-15T14:58:34;13.70;;;12.60;;
4089;SDS011;2059;48.538;12.146;2022-11-15T15:03:37;13.60;;;12.50;;
4089;SDS011;2059;48.538;12.146;2022-11-15T15:08:39;12.97;;;11.80;;
4089;SDS011;2059;48.538;12.146;2022-11-15T15:13:41;13.23;;;12.20;;
4089;SDS011;2059;48.538;12.146;2022-11-15T15:18:45;13.93;;;12.53;;
4089;SDS011;2059;48.538;12.146;2022-11-15T15:23:47;14.23;;;12.83;;
4089;SDS011;2059;48.538;12.146;2022-11-15T15:28:49;13.97;;;12.77;;
4089;SDS011;2059;48.538;12.146;2022-11-15T15:33:53;19.33;;;17.10;;
4089;SDS011;2059;48.538;12.146;2022-11-15T15:38:54;26.10;;;20.37;;
4089;SDS011;2059;48.538;12.146;2022-11-15T15:43:56;15.57;;;13.77;;
4089;SDS011;2059;48.538;12.146;2022-11-15T15:48:59;13.53;;;12.00;;
4089;SDS011;2059;48.538;12.146;2022-11-15T15:54:01;36.57;;;19.63;;
4089;SDS011;2059;48.538;12.146;2022-11-15T15:59:03;38.60;;;20.13;;
4089;SDS011;2059;48.538;12.146;2022-11-15T16:04:06;33.87;;;17.50;;
4089;SDS011;2059;48.538;12.146;2022-11-15T16:09:08;51.97;;;31.20;;
4089;SDS011;2059;48.538;12.146;2022-11-15T16:14:14;39.77;;;23.43;;
4089;SDS011;2059;48.538;12.146;2022-11-15T16:19:17;26.67;;;18.33;;
4089;SDS011;2059;48.538;12.146;2022-11-15T16:24:19;27.40;;;17.77;;
4089;SDS011;2059;48.538;12.146;2022-11-15T16:29:21;29.17;;;19.03;;
4089;SDS011;2059;48.538;12.146;2022-11-15T16:34:24;65.03;;;38.23;;
4089;SDS011;2059;48.538;12.146;2022-11-15T16:39:26;70.80;;;43.70;;
4089;SDS011;2059;48.538;12.146;2022-11-15T16:44:29;63.13;;;41.00;;
4089;SDS011;2059;48.538;12.146;2022-11-15T16:49:33;41.40;;;26.47;;
4089;SDS011;2059;48.538;12.146;2022-11-15T16:54:35;37.47;;;26.23;;
4089;SDS011;2059;48.538;12.146;2022-11-15T16:59:36;35.20;;;25.23;;
4089;SDS011;2059;48.538;12.146;2022-11-15T17:04:40;35.30;;;24.67;;
4089;SDS011;2059;48.538;12.146;2022-11-15T17:09:41;30.83;;;20.97;;
4089;SDS011;2059;48.538;12.146;2022-11-15T17:14:43;38.87;;;27.17;;
4089;SDS011;2059;48.538;12.146;2022-11-15T17:19:47;43.80;;;30.07;;
4089;SDS011;2059;48.538;12.146;2022-11-15T17:24:49;37.13;;;25.30;;
4089;SDS011;2059;48.538;12.146;2022-11-15T17:29:51;38.23;;;25.03;;
4089;SDS011;2059;48.538;12.146;2022-11-15T17:34:54;32.03;;;24.70;;
4089;SDS011;2059;48.538;12.146;2022-11-15T17:39:56;35.73;;;26.83;;
4089;SDS011;2059;48.538;12.146;2022-11-15T17:44:57;42.87;;;27.73;;
4089;SDS011;2059;48.538;12.146;2022-11-15T17:50:01;35.77;;;26.17;;
4089;SDS011;2059;48.538;12.146;2022-11-15T17:55:03;42.03;;;28.40;;
4089;SDS011;2059;48.538;12.146;2022-11-15T18:00:05;38.67;;;27.97;;
4089;SDS011;2059;48.538;12.146;2022-11-15T18:05:10;36.60;;;26.10;;
4089;SDS011;2059;48.538;12.146;2022-11-15T18:10:12;40.60;;;26.87;;
4089;SDS011;2059;48.538;12.146;2022-11-15T18:15:14;38.23;;;28.17;;
4089;SDS011;2059;48.538;12.146;2022-11-15T18:20:19;44.97;;;28.33;;
4089;SDS011;2059;48.538;12.146;2022-11-15T18:25:20;35.40;;;25.60;;
4089;SDS011;2059;48.538;12.146;2022-11-15T18:30:22;32.30;;;24.93;;
4089;SDS011;2059;48.538;12.146;2022-11-15T18:35:25;38.03;;;27.10;;
4089;SDS011;2059;48.538;12.146;2022-11-15T18:40:27;37.00;;;27.90;;
4089;SDS011;2059;48.538;12.146;2022-11-15T18:45:29;34.90;;;27.07;;
4089;SDS011;2059;48.538;12.146;2022-11-15T18:50:32;40.10;;;26.53;;
4089;SDS011;2059;48.538;12.146;2022-11-15T18:55:34;35.07;;;27.33;;
4089;SDS011;2059;48.538;12.146;2022-11-15T19:00:36;37.53;;;25.60;;
4089;SDS011;2059;48.538;12.146;2022-11-15T19:05:39;39.67;;;27.67;;
4089;SDS011;2059;48.538;12.146;2022-11-15T19:10:41;32.50;;;25.47;;
4089;SDS011;2059;48.538;12.146;2022-11-15T19:15:42;30.87;;;23.37;;
4089;SDS011;2059;48.538;12.146;2022-11-15T19:20:46;32.43;;;24.83;;
4089;SDS011;2059;48.538;12.146;2022-11-15T19:25:55;54.53;;;39.27;;
4089;SDS011;2059;48.538;12.146;2022-11-15T19:31:04;28.50;;;22.60;;
4089;SDS011;2059;48.538;12.146;2022-11-15T19:36:09;33.13;;;23.80;;
4089;SDS011;2059;48.538;12.146;2022-11-15T19:41:14;29.50;;;23.47;;
4089;SDS011;2059;48.538;12.146;2022-11-15T19:46:18;34.70;;;24.20;;
4089;SDS011;2059;48.538;12.146;2022-11-15T19:51:24;26.67;;;20.50;;
4089;SDS011;2059;48.538;12.146;2022-11-15T19:56:28;26.70;;;22.87;;
4089;SDS011;2059;48.538;12.146;2022-11-15T20:01:30;28.10;;;22.70;;
4089;SDS011;2059;48.538;12.146;2022-11-15T20:06:37;28.60;;;21.50;;
4089;SDS011;2059;48.538;12.146;2022-11-15T20:11:40;27.17;;;21.53;;
4089;SDS011;2059;48.538;12.146;2022-11-15T20:16:42;24.90;;;19.10;;
4089;SDS011;2059;48.538;12.146;2022-11-15T20:21:45;24.07;;;18.90;;
4089;SDS011;2059;48.538;12.146;2022-11-15T20:26:47;26.53;;;20.30;;
4089;SDS011;2059;48.538;12.146;2022-11-15T20:31:49;29.30;;;20.60;;
4089;SDS011;2059;48.538;12.146;2022-11-15T20:36:52;27.97;;;21.23;;
4089;SDS011;2059;48.538;12.146;2022-11-15T20:41:54;36.20;;;21.33;;
4089;SDS011;2059;48.538;12.146;2022-11-15T20:46:56;35.20;;;25.33;;
4089;SDS011;2059;48.538;12.146;2022-11-15T20:51:59;28.33;;;22.37;;
4089;SDS011;2059;48.538;12.146;2022-11-15T20:57:01;31.90;;;23.10;;
4089;SDS011;2059;48.538;12.146;2022-11-15T21:02:03;31.53;;;22.70;;
4089;SDS011;2059;48.538;12.146;2022-11-15T21:07:06;29.53;;;22.30;;
4089;SDS011;2059;48.538;12.146;2022-11-15T21:12:10;31.93;;;21.77;;
4089;SDS011;2059;48.538;12.146;2022-11-15T21:17:12;27.30;;;19.80;;
4089;SDS011;2059;48.538;12.146;2022-11-15T21:22:16;32.30;;;24.27;;
4089;SDS011;2059;48.538;12.146;2022-11-15T21:27:18;27.13;;;22.30;;
4089;SDS011;2059;48.538;12.146;2022-11-15T21:32:20;27.23;;;21.00;;
4089;SDS011;2059;48.538;12.146;2022-11-15T21:37:23;32.83;;;19.97;;
4089;SDS011;2059;48.538;12.146;2022-11-15T21:42:25;28.70;;;21.00;;
4089;SDS011;2059;48.538;12.146;2022-11-15T21:47:27;26.73;;;22.37;;
4089;SDS011;2059;48.538;12.146;2022-11-15T21:52:31;28.60;;;22.80;;
4089;SDS011;2059;48.538;12.146;2022-11-15T21:57:33;31.27;;;23.57;;
4089;SDS011;2059;48.538;12.146;2022-11-15T22:02:35;32.53;;;23.00;;
4089;SDS011;2059;48.538;12.146;2022-11-15T22:07:38;28.63;;;21.40;;
4089;SDS011;2059;48.538;12.146;2022-11-15T22:12:40;32.07;;;21.80;;
4089;SDS011;2059;48.538;12.146;2022-11-15T22:17:42;32.27;;;21.27;;
4089;SDS011;2059;48.538;12.146;2022-11-15T22:23:00;28.50;;;20.47;;
4089;SDS011;2059;48.538;12.146;2022-11-15T22:28:02;25.63;;;19.27;;
4089;SDS011;2059;48.538;12.146;2022-11-15T22:33:04;21.73;;;17.43;;
4089;SDS011;2059;48.538;12.146;2022-11-15T22:38:08;19.83;;;16.70;;
4089;SDS011;2059;48.538;12.146;2022-11-15T22:43:10;19.63;;;16.40;;
4089;SDS011;2059;48.538;12.146;2022-11-15T22:48:13;18.83;;;15.33;;
4089;SDS011;2059;48.538;12.146;2022-11-15T22:53:16;15.63;;;13.00;;
4089;SDS011;2059;48.538;12.146;2022-11-15T22:58:19;17.07;;;13.90;;
4089;SDS011;2059;48.538;12.146;2022-11-15T23:03:22;17.57;;;15.57;;
4089;SDS011;2059;48.538;12.146;2022-11-15T23:08:27;14.73;;;13.13;;
4089;SDS011;2059;48.538;12.146;2022-11-15T23:13:29;16.70;;;15.00;;
4089;SDS011;2059;48.538;12.146;2022-11-15T23:18:33;16.53;;;13.63;;
4089;SDS011;2059;48.538;12.146;2022-11-15T23:23:37;15.87;;;13.50;;
4089;SDS011;2059;48.538;12.146;2022-11-15T23:28:39;15.33;;;13.73;;
4089;SDS011;2059;48.538;12.146;2022-11-15T23:33:40;13.03;;;11.63;;
4089;SDS011;2059;48.538;12.146;2022-11-15T23:38:59;15.20;;;12.93;;
4089;SDS011;2059;48.538;12.146;2022-11-15T23:44:02;15.40;;;13.50;;
4089;SDS011;2059;48.538;12.146;2022-11-15T23:49:04;15.90;;;13.40;;
4089;SDS011;2059;48.538;12.146;2022-11-15T23:54:08;14.77;;;13.17;;
4089;SDS011;2059;48.538;12.146;2022-11-15T23:59:10;14.17;;;12.70;;
